createdAt,value
2017-09-14T00:01:24.876Z,99.90
2017-09-14T00:04:29.792Z,99.90
2017-09-14T00:07:38.281Z,99.90
2017-09-14T00:10:43.491Z,99.90
2017-09-14T00:13:54.607Z,99.90
2017-09-14T00:17:00.335Z,99.90
2017-09-14T00:20:05.189Z,99.90
2017-09-14T00:23:10.408Z,99.90
2017-09-14T00:26:19.067Z,99.90
2017-09-14T00:29:26.395Z,99.90
2017-09-14T00:32:32.092Z,99.90
2017-09-14T00:35:37.368Z,99.90
2017-09-14T00:38:42.760Z,99.90
2017-09-14T00:41:48.244Z,99.90
2017-09-14T00:44:53.296Z,99.90
2017-09-14T00:47:58.687Z,99.90
2017-09-14T00:51:06.217Z,99.70
2017-09-14T00:54:11.765Z,99.80
2017-09-14T00:57:16.939Z,99.90
2017-09-14T01:00:23.545Z,99.90
2017-09-14T01:03:29.277Z,99.90
2017-09-14T01:06:35.213Z,99.90
2017-09-14T01:09:41.154Z,99.90
2017-09-14T01:12:47.555Z,99.90
2017-09-14T01:15:53.815Z,99.90
2017-09-14T01:18:59.176Z,99.90
2017-09-14T01:22:04.099Z,99.90
2017-09-14T01:25:09.884Z,99.90
2017-09-14T01:28:16.236Z,99.90
2017-09-14T01:31:21.084Z,99.90
2017-09-14T01:34:26.293Z,99.90
2017-09-14T01:37:32.492Z,99.90
2017-09-14T01:40:38.941Z,99.90
2017-09-14T01:43:44.179Z,99.90
2017-09-14T01:46:49.571Z,99.90
2017-09-14T01:49:57.296Z,99.90
2017-09-14T01:53:02.335Z,99.90
2017-09-14T01:56:07.467Z,99.90
2017-09-14T01:59:12.635Z,99.90
2017-09-14T02:02:18.155Z,99.90
2017-09-14T02:05:34.695Z,99.90
2017-09-14T02:08:39.450Z,99.30
2017-09-14T02:11:44.247Z,98.40
2017-09-14T02:14:49.275Z,98.40
2017-09-14T02:17:54.973Z,96.60
2017-09-14T02:21:01.235Z,96.20
2017-09-14T02:24:15.708Z,96.60
2017-09-14T02:27:21.067Z,96.90
2017-09-14T02:30:26.760Z,96.50
2017-09-14T02:33:31.764Z,97.00
2017-09-14T02:36:36.808Z,97.20
2017-09-14T02:39:49.504Z,97.90
2017-09-14T02:42:57.532Z,97.90
2017-09-14T02:46:05.177Z,98.10
2017-09-14T02:49:10.313Z,98.10
2017-09-14T02:52:19.267Z,98.20
2017-09-14T02:55:36.973Z,98.60
2017-09-14T02:58:43.023Z,97.80
2017-09-14T03:01:48.039Z,97.80
2017-09-14T03:04:55.827Z,97.30
2017-09-14T03:08:01.215Z,97.40
2017-09-14T03:11:06.527Z,97.30
2017-09-14T03:14:12.147Z,97.70
2017-09-14T03:17:17.571Z,97.80
2017-09-14T03:20:23.843Z,97.60
2017-09-14T03:23:29.867Z,98.30
2017-09-14T03:26:34.724Z,99.10
2017-09-14T03:29:39.527Z,99.30
2017-09-14T03:32:44.622Z,99.50
2017-09-14T03:35:49.452Z,99.40
2017-09-14T03:38:54.972Z,99.30
2017-09-14T03:42:00.872Z,99.50
2017-09-14T03:45:07.358Z,99.30
2017-09-14T03:48:12.783Z,99.30
2017-09-14T03:51:19.572Z,99.50
2017-09-14T03:54:24.447Z,99.80
2017-09-14T03:57:29.496Z,99.80
2017-09-14T04:00:38.286Z,99.70
2017-09-14T04:03:44.952Z,99.90
2017-09-14T04:06:50.621Z,99.90
2017-09-14T04:09:55.512Z,99.90
2017-09-14T04:13:00.945Z,99.90
2017-09-14T04:16:06.229Z,99.90
2017-09-14T04:19:15.008Z,99.90
2017-09-14T04:22:19.831Z,99.90
2017-09-14T04:25:25.452Z,99.90
2017-09-14T04:28:31.315Z,99.90
2017-09-14T04:31:36.831Z,99.90
2017-09-14T04:34:42.000Z,99.90
2017-09-14T04:37:46.940Z,99.90
2017-09-14T04:40:52.195Z,99.90
2017-09-14T04:43:57.525Z,99.90
2017-09-14T04:47:03.177Z,99.90
2017-09-14T04:50:08.194Z,99.90
2017-09-14T04:53:13.621Z,99.90
2017-09-14T04:56:20.253Z,99.90
2017-09-14T04:59:25.208Z,99.90
2017-09-14T05:02:30.501Z,99.90
2017-09-14T05:05:35.772Z,99.90
2017-09-14T05:08:41.944Z,99.90
2017-09-14T05:11:47.705Z,99.90
2017-09-14T05:14:52.675Z,99.90
2017-09-14T05:18:00.577Z,99.90
2017-09-14T05:21:07.181Z,99.90
2017-09-14T05:24:11.967Z,99.90
2017-09-14T05:27:17.093Z,99.90
2017-09-14T05:30:22.116Z,99.90
2017-09-14T05:33:27.267Z,99.90
2017-09-14T05:36:32.936Z,99.90
2017-09-14T05:39:38.331Z,99.90
2017-09-14T05:42:44.193Z,99.90
2017-09-14T05:45:49.735Z,99.90
2017-09-14T05:48:54.992Z,99.90
2017-09-14T05:52:00.567Z,99.90
2017-09-14T05:55:06.777Z,99.90
2017-09-14T05:58:12.241Z,99.90
2017-09-14T06:01:18.768Z,99.90
2017-09-14T06:04:24.223Z,99.90
2017-09-14T06:07:29.368Z,99.90
2017-09-14T06:10:34.509Z,99.90
2017-09-14T06:13:40.789Z,99.90
2017-09-14T06:16:45.844Z,99.90
2017-09-14T06:19:51.621Z,99.90
2017-09-14T06:22:58.680Z,99.90
2017-09-14T06:26:04.493Z,99.90
2017-09-14T06:29:10.030Z,99.90
2017-09-14T06:32:15.359Z,99.90
2017-09-14T06:35:22.156Z,99.90
2017-09-14T06:38:27.744Z,99.90
2017-09-14T06:41:32.586Z,99.90
2017-09-14T06:44:37.328Z,99.90
2017-09-14T06:47:42.906Z,99.90
2017-09-14T06:50:49.256Z,99.90
2017-09-14T06:53:54.504Z,99.90
2017-09-14T06:57:00.441Z,99.90
2017-09-14T07:00:06.567Z,99.90
2017-09-14T07:03:12.103Z,99.90
2017-09-14T07:06:17.876Z,99.90
2017-09-14T07:09:23.333Z,99.90
2017-09-14T07:12:28.910Z,99.90
2017-09-14T07:15:34.699Z,99.90
2017-09-14T07:18:39.572Z,99.90
2017-09-14T07:21:44.447Z,99.90
2017-09-14T07:24:49.658Z,99.90
2017-09-14T07:27:55.036Z,99.90
2017-09-14T07:31:00.777Z,99.90
2017-09-14T07:34:05.484Z,99.90
2017-09-14T07:37:10.806Z,99.90
2017-09-14T07:40:16.144Z,99.90
2017-09-14T07:43:22.873Z,99.90
2017-09-14T07:46:28.699Z,99.90
2017-09-14T07:49:34.420Z,99.90
2017-09-14T07:52:40.008Z,99.90
2017-09-14T07:55:45.219Z,99.90
2017-09-14T07:58:50.573Z,99.80
2017-09-14T08:01:55.565Z,99.30
2017-09-14T08:05:00.793Z,99.50
2017-09-14T08:08:05.880Z,99.30
2017-09-14T08:11:10.803Z,99.40
2017-09-14T08:14:16.628Z,99.20
2017-09-14T08:17:22.084Z,99.20
2017-09-14T08:20:26.715Z,98.80
2017-09-14T08:23:33.684Z,98.90
2017-09-14T08:26:39.389Z,98.30
2017-09-14T08:29:44.704Z,98.30
2017-09-14T08:32:49.747Z,99.10
2017-09-14T08:35:55.108Z,98.80
2017-09-14T08:39:00.385Z,98.80
2017-09-14T08:42:05.545Z,98.70
2017-09-14T08:45:10.916Z,98.30
2017-09-14T08:48:16.404Z,98.30
2017-09-14T08:51:21.889Z,98.30
2017-09-14T08:54:26.663Z,98.00
2017-09-14T08:57:32.528Z,98.10
2017-09-14T09:00:37.989Z,98.10
2017-09-14T09:03:43.264Z,97.90
2017-09-14T09:06:48.763Z,98.40
2017-09-14T09:09:54.052Z,98.40
2017-09-14T09:12:59.295Z,98.00
2017-09-14T09:16:04.185Z,97.60
2017-09-14T09:19:09.284Z,97.10
2017-09-14T09:22:14.732Z,97.80
2017-09-14T09:25:20.331Z,97.80
2017-09-14T09:28:26.560Z,98.30
2017-09-14T09:31:32.219Z,98.30
2017-09-14T09:34:37.843Z,97.30
2017-09-14T09:37:43.292Z,98.20
2017-09-14T09:40:48.110Z,98.40
2017-09-14T09:43:53.799Z,99.00
2017-09-14T09:46:59.063Z,98.50
2017-09-14T09:50:04.484Z,98.50
2017-09-14T09:53:09.933Z,98.90
2017-09-14T09:56:15.355Z,98.80
2017-09-14T09:59:20.381Z,98.70
2017-09-14T10:02:25.944Z,98.70
2017-09-14T10:05:31.653Z,98.90
2017-09-14T10:08:36.869Z,99.00
2017-09-14T10:11:41.888Z,98.60
2017-09-14T10:14:47.067Z,98.80
2017-09-14T10:17:52.493Z,98.30
2017-09-14T10:20:58.915Z,97.60
2017-09-14T10:24:03.932Z,97.60
2017-09-14T10:27:09.053Z,97.10
2017-09-14T10:30:13.912Z,97.50
2017-09-14T10:33:19.448Z,98.10
2017-09-14T10:36:24.364Z,97.60
2017-09-14T10:39:29.706Z,97.60
2017-09-14T10:42:34.476Z,97.70
2017-09-14T10:45:40.477Z,97.40
2017-09-14T10:48:46.421Z,97.70
2017-09-14T10:51:54.016Z,96.60
2017-09-14T10:54:59.128Z,96.50
2017-09-14T10:58:04.764Z,96.60
2017-09-14T11:01:09.416Z,96.90
2017-09-14T11:04:14.340Z,96.90
2017-09-14T11:07:22.879Z,96.50
2017-09-14T11:10:29.115Z,96.50
2017-09-14T11:13:34.778Z,96.70
2017-09-14T11:16:40.684Z,97.00
2017-09-14T11:19:46.061Z,96.30
2017-09-14T11:22:51.449Z,96.90
2017-09-14T11:25:56.878Z,97.40
2017-09-14T11:29:02.473Z,96.80
2017-09-14T11:32:07.392Z,96.40
2017-09-14T11:35:12.899Z,96.90
2017-09-14T11:38:19.259Z,95.90
2017-09-14T11:41:24.731Z,95.90
2017-09-14T11:44:30.104Z,95.80
2017-09-14T11:47:34.997Z,95.00
2017-09-14T11:50:41.032Z,94.30
2017-09-14T11:53:46.753Z,94.30
2017-09-14T11:56:53.454Z,94.10
2017-09-14T11:59:58.524Z,93.00
2017-09-14T12:03:03.572Z,92.20
2017-09-14T12:06:09.206Z,92.50
2017-09-14T12:09:15.203Z,93.20
2017-09-14T12:12:20.844Z,93.20
2017-09-14T12:15:28.439Z,91.90
2017-09-14T12:18:36.996Z,91.90
2017-09-14T12:21:48.441Z,91.50
2017-09-14T12:24:53.346Z,92.20
2017-09-14T12:27:58.884Z,93.60
2017-09-14T12:31:04.769Z,95.50
2017-09-14T12:34:10.508Z,95.30
2017-09-14T12:37:15.865Z,95.20
2017-09-14T12:40:22.392Z,96.10
2017-09-14T12:43:27.180Z,96.10
2017-09-14T12:46:32.628Z,95.80
2017-09-14T12:49:38.196Z,95.50
2017-09-14T12:52:44.888Z,94.20
2017-09-14T12:55:51.077Z,94.80
2017-09-14T12:58:58.346Z,93.60
2017-09-14T13:02:03.199Z,94.30
2017-09-14T13:05:08.705Z,94.00
2017-09-14T13:08:13.832Z,93.50
2017-09-14T13:11:26.680Z,93.10
2017-09-14T13:14:34.460Z,92.00
2017-09-14T13:17:39.784Z,91.40
2017-09-14T13:20:44.744Z,90.90
2017-09-14T13:23:50.827Z,88.10
2017-09-14T13:26:56.668Z,88.10
2017-09-14T13:30:02.740Z,87.10
2017-09-14T13:33:08.062Z,87.20
2017-09-14T13:36:13.640Z,88.90
2017-09-14T13:39:20.148Z,90.20
2017-09-14T13:42:26.254Z,89.50
2017-09-14T13:45:31.954Z,90.40
2017-09-14T13:48:36.873Z,90.40
2017-09-14T13:51:41.682Z,90.60
2017-09-14T13:54:46.720Z,90.40
2017-09-14T13:57:52.126Z,90.10
2017-09-14T14:00:57.141Z,87.60
2017-09-14T14:04:02.756Z,87.20
2017-09-14T14:07:08.252Z,84.40
2017-09-14T14:10:16.340Z,82.50
2017-09-14T14:13:22.094Z,83.40
2017-09-14T14:16:28.015Z,83.40
2017-09-14T14:19:32.972Z,85.90
2017-09-14T14:22:37.748Z,88.00
2017-09-14T14:25:43.219Z,90.20
2017-09-14T14:28:48.999Z,90.80
2017-09-14T14:31:55.288Z,91.60
2017-09-14T14:35:00.695Z,91.50
2017-09-14T14:38:06.828Z,91.50
2017-09-14T14:41:11.881Z,90.40
2017-09-14T14:44:18.419Z,90.70
2017-09-14T14:47:23.844Z,89.20
2017-09-14T14:50:29.120Z,89.90
2017-09-14T14:53:35.628Z,88.90
2017-09-14T14:56:41.520Z,89.00
2017-09-14T14:59:47.784Z,84.50
2017-09-14T15:02:54.937Z,84.40
2017-09-14T15:06:00.443Z,82.60
2017-09-14T15:09:06.199Z,83.80
2017-09-14T15:12:11.738Z,83.80
2017-09-14T15:15:16.581Z,81.80
2017-09-14T15:18:21.236Z,83.90
2017-09-14T15:21:26.013Z,80.70
2017-09-14T15:24:31.700Z,78.30
2017-09-14T15:27:37.198Z,77.00
2017-09-14T15:30:42.573Z,77.10
2017-09-14T15:33:47.747Z,76.10
2017-09-14T15:36:55.924Z,77.40
2017-09-14T15:40:08.151Z,77.00
2017-09-14T15:43:19.246Z,76.90
2017-09-14T15:46:25.576Z,76.20
2017-09-14T15:49:37.947Z,74.90
2017-09-14T15:52:43.488Z,74.80
2017-09-14T15:55:48.496Z,76.90
2017-09-14T15:58:56.523Z,76.80
2017-09-14T16:02:02.136Z,78.50
2017-09-14T16:05:07.645Z,80.00
2017-09-14T16:08:25.455Z,79.40
2017-09-14T16:11:30.920Z,79.40
2017-09-14T16:14:36.861Z,83.90
2017-09-14T16:17:41.680Z,83.90
2017-09-14T16:20:48.617Z,86.40
2017-09-14T16:23:53.504Z,88.00
2017-09-14T16:26:58.359Z,88.80
2017-09-14T16:30:04.136Z,85.70
2017-09-14T16:33:09.280Z,85.60
2017-09-14T16:36:14.759Z,85.20
2017-09-14T16:39:20.410Z,87.00
2017-09-14T16:42:26.128Z,85.10
2017-09-14T16:45:31.956Z,85.00
2017-09-14T16:48:39.129Z,82.80
2017-09-14T16:51:45.683Z,82.90
2017-09-14T16:54:50.680Z,82.80
2017-09-14T16:57:58.096Z,83.10
2017-09-14T17:01:03.643Z,83.70
2017-09-14T17:04:08.843Z,84.10
2017-09-14T17:07:14.128Z,84.70
2017-09-14T17:10:20.206Z,85.50
2017-09-14T17:13:25.188Z,86.60
2017-09-14T17:16:30.082Z,87.80
2017-09-14T17:19:39.856Z,88.50
2017-09-14T17:22:45.366Z,89.50
2017-09-14T17:25:50.673Z,90.10
2017-09-14T17:28:55.580Z,90.40
2017-09-14T17:32:06.725Z,91.00
2017-09-14T17:35:11.475Z,91.40
2017-09-14T17:38:17.308Z,91.70
2017-09-14T17:41:30.624Z,92.00
2017-09-14T17:44:35.567Z,92.10
2017-09-14T17:47:42.285Z,91.90
2017-09-14T17:50:49.343Z,91.70
2017-09-14T17:53:54.729Z,91.80
2017-09-14T17:57:00.791Z,91.80
2017-09-14T18:00:06.260Z,91.70
2017-09-14T18:03:13.954Z,91.50
2017-09-14T18:06:20.332Z,91.90
2017-09-14T18:09:25.186Z,91.70
2017-09-14T18:12:32.762Z,91.00
2017-09-14T18:15:41.233Z,91.50
2017-09-14T18:18:49.635Z,91.50
2017-09-14T18:21:56.681Z,91.40
2017-09-14T18:25:01.585Z,91.70
2017-09-14T18:28:06.977Z,91.80
2017-09-14T18:31:11.938Z,91.50
2017-09-14T18:34:17.864Z,90.70
2017-09-14T18:37:23.027Z,90.70
2017-09-14T18:40:34.627Z,90.20
2017-09-14T18:43:41.660Z,89.80
2017-09-14T18:46:48.759Z,89.60
2017-09-14T18:49:54.814Z,89.40
2017-09-14T18:53:00.408Z,89.40
2017-09-14T18:56:05.851Z,89.30
2017-09-14T18:59:11.489Z,89.10
2017-09-14T19:02:17.549Z,89.30
2017-09-14T19:05:26.314Z,89.80
2017-09-14T19:08:31.334Z,90.20
2017-09-14T19:11:36.268Z,90.50
2017-09-14T19:14:42.673Z,90.70
2017-09-14T19:17:47.616Z,90.70
2017-09-14T19:20:52.931Z,90.70
2017-09-14T19:23:57.986Z,90.70
2017-09-14T19:27:05.791Z,90.60
2017-09-14T19:30:11.611Z,90.60
2017-09-14T19:33:19.799Z,90.60
2017-09-14T19:36:25.474Z,90.30
2017-09-14T19:39:31.248Z,90.60
2017-09-14T19:42:40.572Z,90.60
2017-09-14T19:45:48.759Z,90.60
2017-09-14T19:48:55.059Z,90.60
2017-09-14T19:52:01.740Z,90.60
2017-09-14T19:55:06.940Z,90.70
2017-09-14T19:58:18.421Z,90.80
2017-09-14T20:01:23.253Z,91.00
2017-09-14T20:04:30.145Z,90.60
2017-09-14T20:07:35.816Z,90.60
2017-09-14T20:10:41.270Z,90.50
2017-09-14T20:13:46.781Z,90.60
2017-09-14T20:16:53.705Z,90.40
2017-09-14T20:20:02.747Z,90.60
2017-09-14T20:23:09.797Z,90.90
2017-09-14T20:26:15.209Z,90.90
2017-09-14T20:29:21.286Z,91.10
2017-09-14T20:32:26.978Z,91.10
2017-09-14T20:35:32.023Z,91.40
2017-09-14T20:38:37.193Z,91.70
2017-09-14T20:41:43.567Z,91.80
2017-09-14T20:44:48.388Z,92.00
2017-09-14T20:47:53.974Z,92.40
2017-09-14T20:50:59.540Z,92.60
2017-09-14T20:54:05.374Z,92.80
2017-09-14T20:57:11.456Z,92.70
2017-09-14T21:00:17.586Z,92.90
2017-09-14T21:03:23.244Z,92.90
2017-09-14T21:06:31.169Z,93.10
2017-09-14T21:09:36.362Z,92.90
2017-09-14T21:12:41.584Z,93.00
2017-09-14T21:15:47.818Z,93.20
2017-09-14T21:18:53.139Z,93.20
2017-09-14T21:21:58.361Z,93.30
2017-09-14T21:25:04.897Z,93.30
2017-09-14T21:28:10.335Z,93.40
2017-09-14T21:31:16.650Z,93.40
2017-09-14T21:34:22.972Z,93.60
2017-09-14T21:37:30.056Z,93.70
2017-09-14T21:40:41.764Z,93.70
2017-09-14T21:43:46.792Z,93.80
2017-09-14T21:46:51.993Z,93.80
2017-09-14T21:49:56.995Z,93.80
2017-09-14T21:53:03.803Z,93.80
2017-09-14T21:56:09.996Z,93.80
2017-09-14T21:59:16.852Z,94.10
2017-09-14T22:02:24.155Z,94.00
2017-09-14T22:05:28.971Z,94.50
2017-09-14T22:08:36.508Z,94.10
2017-09-14T22:11:43.669Z,94.40
2017-09-14T22:14:48.816Z,94.40
2017-09-14T22:17:53.764Z,94.50
2017-09-14T22:20:58.756Z,94.70
2017-09-14T22:24:05.919Z,95.40
2017-09-14T22:27:13.036Z,95.40
2017-09-14T22:30:21.733Z,95.20
2017-09-14T22:33:27.348Z,95.00
2017-09-14T22:36:32.339Z,95.00
2017-09-14T22:39:37.959Z,95.00
2017-09-14T22:42:50.415Z,95.20
2017-09-14T22:45:55.443Z,95.20
2017-09-14T22:49:00.465Z,95.20
2017-09-14T22:52:06.587Z,95.50
2017-09-14T22:55:17.040Z,95.70
2017-09-14T22:58:22.603Z,95.60
2017-09-14T23:01:28.215Z,95.80
2017-09-14T23:04:33.820Z,95.80
2017-09-14T23:07:38.919Z,96.00
2017-09-14T23:10:44.461Z,95.90
2017-09-14T23:13:50.684Z,96.30
2017-09-14T23:17:03.408Z,96.50
2017-09-14T23:20:08.119Z,96.50
2017-09-14T23:23:13.941Z,96.50
2017-09-14T23:26:19.568Z,96.90
2017-09-14T23:29:26.659Z,97.00
2017-09-14T23:32:31.656Z,97.50
2017-09-14T23:35:39.700Z,97.30
2017-09-14T23:38:45.056Z,97.20
2017-09-14T23:41:50.105Z,97.20
2017-09-14T23:45:07.914Z,97.20
2017-09-14T23:48:14.071Z,97.20
2017-09-14T23:51:19.264Z,97.30
2017-09-14T23:54:24.108Z,97.30
2017-09-14T23:57:29.124Z,97.20
